createdAt,value
2018-11-02T00:05:01.386Z,0
2018-11-02T00:10:03.899Z,0
2018-11-02T00:15:06.316Z,1
2018-11-02T00:20:08.836Z,1
2018-11-02T00:25:11.285Z,0
2018-11-02T00:30:13.693Z,0
2018-11-02T00:35:16.135Z,0
2018-11-02T00:40:18.591Z,0
2018-11-02T00:45:21.046Z,1
2018-11-02T00:50:23.534Z,1
2018-11-02T00:55:25.967Z,0
2018-11-02T01:00:28.456Z,1
2018-11-02T01:05:30.898Z,1
2018-11-02T01:10:33.337Z,1
2018-11-02T01:15:35.788Z,1
2018-11-02T01:20:38.245Z,0
2018-11-02T01:25:40.709Z,0
2018-11-02T01:30:43.164Z,0
2018-11-02T01:35:45.631Z,0
2018-11-02T01:40:48.075Z,0
2018-11-02T01:45:50.536Z,1
2018-11-02T01:50:52.992Z,0
2018-11-02T01:55:55.464Z,1
2018-11-02T02:00:57.900Z,0
2018-11-02T02:06:00.385Z,0
2018-11-02T02:11:02.835Z,1
2018-11-02T02:16:05.280Z,2
2018-11-02T02:21:07.752Z,1
2018-11-02T02:26:10.208Z,1
2018-11-02T02:31:12.662Z,1
2018-11-02T02:36:15.125Z,1
2018-11-02T02:41:17.585Z,1
2018-11-02T02:46:20.056Z,1
2018-11-02T02:51:22.574Z,1
2018-11-02T02:56:24.949Z,0
2018-11-02T03:01:27.422Z,1
2018-11-02T03:06:29.853Z,1
2018-11-02T03:11:32.349Z,0
2018-11-02T03:16:34.779Z,1
2018-11-02T03:21:37.232Z,1
2018-11-02T03:26:39.684Z,1
2018-11-02T03:31:42.268Z,0
2018-11-02T03:36:44.603Z,1
2018-11-02T03:41:47.091Z,1
2018-11-02T03:46:49.518Z,0
2018-11-02T03:51:51.977Z,0
2018-11-02T03:56:54.480Z,0
2018-11-02T04:01:56.870Z,1
2018-11-02T04:06:59.346Z,0
2018-11-02T04:12:01.857Z,0
2018-11-02T04:17:04.289Z,0
2018-11-02T04:22:06.713Z,1
2018-11-02T04:27:09.351Z,1
2018-11-02T04:32:11.669Z,0
2018-11-02T04:37:14.123Z,1
2018-11-02T04:42:16.619Z,0
2018-11-02T04:47:19.018Z,1
2018-11-02T04:52:21.499Z,1
2018-11-02T04:57:23.936Z,1
2018-11-02T05:02:26.487Z,1
2018-11-02T05:07:29.049Z,1
2018-11-02T05:12:31.347Z,2
2018-11-02T05:17:33.792Z,2
2018-11-02T05:22:36.389Z,1
2018-11-02T05:27:38.739Z,2
2018-11-02T05:32:41.286Z,2
2018-11-02T05:37:43.607Z,2
2018-11-02T05:42:46.270Z,3
2018-11-02T05:47:48.532Z,3
2018-11-02T05:52:51.046Z,2
2018-11-02T05:57:53.450Z,3
2018-11-02T06:02:55.893Z,2
2018-11-02T06:07:58.416Z,2
2018-11-02T06:13:00.852Z,2
2018-11-02T06:18:03.287Z,1
2018-11-02T06:23:05.719Z,1
2018-11-02T06:28:08.211Z,1
2018-11-02T06:33:10.657Z,1
2018-11-02T06:38:13.098Z,1
2018-11-02T06:43:15.576Z,2
2018-11-02T06:48:18.009Z,1
2018-11-02T06:53:20.469Z,3
2018-11-02T06:58:22.933Z,1
2018-11-02T07:03:25.415Z,1
2018-11-02T07:08:27.900Z,1
2018-11-02T07:13:30.362Z,1
2018-11-02T07:18:32.777Z,1
2018-11-02T07:23:35.218Z,1
2018-11-02T07:28:37.685Z,1
2018-11-02T07:33:40.175Z,1
2018-11-02T07:38:42.604Z,1
2018-11-02T07:43:45.147Z,1
2018-11-02T07:48:47.539Z,1
2018-11-02T07:53:49.982Z,2
2018-11-02T07:58:52.435Z,2
2018-11-02T08:03:54.882Z,2
2018-11-02T08:08:57.363Z,2
2018-11-02T08:13:59.812Z,2
2018-11-02T08:19:02.281Z,2
2018-11-02T08:24:04.721Z,2
2018-11-02T08:29:07.166Z,2
2018-11-02T08:34:09.669Z,2
2018-11-02T08:39:12.132Z,3
2018-11-02T08:44:14.567Z,4
2018-11-02T08:49:17.008Z,3
2018-11-02T08:54:19.463Z,2
2018-11-02T08:59:22.047Z,1
2018-11-02T09:04:24.448Z,1
2018-11-02T09:09:26.831Z,1
2018-11-02T09:14:29.285Z,1
2018-11-02T09:19:31.945Z,1
2018-11-02T09:24:34.194Z,1
2018-11-02T09:29:36.658Z,1
2018-11-02T09:34:39.128Z,1
2018-11-02T09:39:41.624Z,1
2018-11-02T09:44:44.171Z,0
2018-11-02T09:49:46.505Z,1
2018-11-02T09:54:48.936Z,0
2018-11-02T09:59:51.401Z,0
2018-11-02T10:04:53.863Z,1
2018-11-02T10:09:56.331Z,1
2018-11-02T10:14:58.775Z,1
2018-11-02T10:20:01.459Z,1
2018-11-02T10:25:03.729Z,1
2018-11-02T10:30:06.156Z,0
2018-11-02T10:35:08.737Z,0
2018-11-02T10:40:11.103Z,0
2018-11-02T10:45:13.672Z,1
2018-11-02T10:50:15.976Z,1
2018-11-02T10:55:18.432Z,1
2018-11-02T11:00:20.890Z,1
2018-11-02T11:05:23.452Z,1
2018-11-02T11:10:25.833Z,1
2018-11-02T11:15:28.265Z,1
2018-11-02T11:20:30.747Z,0
2018-11-02T11:25:33.179Z,0
2018-11-02T11:30:35.655Z,1
2018-11-02T11:35:38.097Z,1
2018-11-02T11:40:40.548Z,1
2018-11-02T11:45:43.017Z,1
2018-11-02T11:50:45.545Z,1
2018-11-02T11:55:47.920Z,0
2018-11-02T12:00:50.534Z,1
2018-11-02T12:05:52.846Z,1
2018-11-02T12:10:55.308Z,1
2018-11-02T12:15:57.876Z,1
2018-11-02T12:21:00.235Z,1
2018-11-02T12:26:02.680Z,1
2018-11-02T12:36:07.685Z,0
2018-11-02T12:41:10.051Z,0
2018-11-02T12:46:12.536Z,1
2018-11-02T12:51:14.958Z,1
2018-11-02T12:56:17.470Z,0
2018-11-02T13:01:19.879Z,1
2018-11-02T13:06:22.362Z,1
2018-11-02T13:11:24.814Z,0
2018-11-02T13:16:27.243Z,1
2018-11-02T13:21:29.777Z,1
2018-11-02T13:26:32.197Z,1
2018-11-02T13:31:34.657Z,1
2018-11-02T13:36:37.233Z,1
2018-11-02T13:41:39.575Z,1
2018-11-02T13:46:41.995Z,1
2018-11-02T13:51:44.443Z,1
2018-11-02T13:56:46.918Z,1
2018-11-02T14:01:49.436Z,1
2018-11-02T14:06:51.860Z,1
2018-11-02T14:11:54.280Z,1
2018-11-02T14:16:56.767Z,1
2018-11-02T14:21:59.194Z,1
2018-11-02T14:27:01.652Z,1
2018-11-02T14:32:04.101Z,1
2018-11-02T14:37:06.590Z,1
2018-11-02T14:42:09.014Z,1
2018-11-02T14:47:11.479Z,1
2018-11-02T14:52:13.979Z,2
2018-11-02T14:57:16.392Z,3
2018-11-02T15:02:18.853Z,3
2018-11-02T15:07:21.309Z,4
2018-11-02T15:12:23.765Z,4
2018-11-02T15:17:26.240Z,3
2018-11-02T15:22:28.691Z,3
2018-11-02T15:27:31.133Z,3
2018-11-02T15:32:33.604Z,3
2018-11-02T15:37:36.061Z,3
2018-11-02T15:42:38.503Z,3
2018-11-02T15:47:40.960Z,4
2018-11-02T15:52:43.429Z,4
2018-11-02T15:57:45.894Z,7
2018-11-02T16:02:48.348Z,3
2018-11-02T16:07:50.801Z,4
2018-11-02T16:12:53.375Z,5
2018-11-02T16:17:55.735Z,10
2018-11-02T16:22:58.169Z,11
2018-11-02T16:28:00.672Z,16
2018-11-02T16:33:03.090Z,20
2018-11-02T16:38:05.559Z,22
2018-11-02T16:43:08.034Z,16
2018-11-02T16:48:10.482Z,14
2018-11-02T16:53:12.927Z,14
2018-11-02T16:58:15.373Z,15
2018-11-02T17:03:17.866Z,15
2018-11-02T17:08:20.298Z,17
2018-11-02T17:13:22.764Z,14
2018-11-02T17:18:25.415Z,9
2018-11-02T17:23:27.664Z,13
2018-11-02T17:28:30.117Z,13
2018-11-02T17:33:32.645Z,16
2018-11-02T17:38:35.034Z,18
2018-11-02T17:43:37.559Z,13
2018-11-02T17:48:39.952Z,35
2018-11-02T17:53:42.426Z,20
2018-11-02T17:58:44.863Z,13
2018-11-02T18:03:47.338Z,11
2018-11-02T18:08:49.839Z,24
2018-11-02T18:13:52.246Z,30
2018-11-02T18:18:54.834Z,27
2018-11-02T18:23:57.146Z,49
2018-11-02T18:28:59.640Z,32
2018-11-02T18:34:02.083Z,56
2018-11-02T18:39:04.527Z,39
2018-11-02T18:44:06.993Z,25
2018-11-02T18:49:09.433Z,24
2018-11-02T18:54:11.889Z,21
2018-11-02T18:59:14.354Z,34
2018-11-02T19:04:16.812Z,33
2018-11-02T19:09:19.293Z,35
2018-11-02T19:14:21.729Z,44
2018-11-02T19:19:24.185Z,28
2018-11-02T19:24:26.663Z,15
2018-11-02T19:29:29.107Z,45
2018-11-02T19:34:31.766Z,34
2018-11-02T19:39:34.018Z,23
2018-11-02T19:44:36.677Z,20
2018-11-02T19:49:38.942Z,18
2018-11-02T19:54:41.422Z,13
2018-11-02T19:59:43.860Z,28
2018-11-02T20:04:46.316Z,36
2018-11-02T20:09:48.757Z,22
2018-11-02T20:14:51.222Z,16
2018-11-02T20:19:53.710Z,17
2018-11-02T20:24:56.135Z,27
2018-11-02T20:29:58.646Z,24
2018-11-02T20:35:01.107Z,25
2018-11-02T20:40:03.552Z,21
2018-11-02T20:45:06.001Z,15
2018-11-02T20:50:08.467Z,13
2018-11-02T20:55:10.883Z,16
2018-11-02T21:00:13.369Z,15
2018-11-02T21:05:15.839Z,14
2018-11-02T21:10:18.249Z,12
2018-11-02T21:15:20.707Z,15
2018-11-02T21:20:23.201Z,15
2018-11-02T21:25:25.674Z,14
2018-11-02T21:30:28.079Z,14
2018-11-02T21:35:30.539Z,15
2018-11-02T21:40:32.996Z,16
2018-11-02T21:45:35.461Z,15
2018-11-02T21:50:37.951Z,16
2018-11-02T21:55:40.360Z,17
2018-11-02T22:00:42.829Z,15
2018-11-02T22:05:45.358Z,15
2018-11-02T22:10:47.853Z,16
2018-11-02T22:15:50.210Z,15
2018-11-02T22:20:52.673Z,14
2018-11-02T22:25:55.139Z,15
2018-11-02T22:30:57.638Z,15
2018-11-02T22:36:00.302Z,13
2018-11-02T22:41:02.515Z,14
2018-11-02T22:46:04.959Z,12
2018-11-02T22:51:07.424Z,15
2018-11-02T22:56:09.937Z,14
2018-11-02T23:01:12.386Z,13
2018-11-02T23:06:14.931Z,12
2018-11-02T23:11:17.251Z,14
2018-11-02T23:16:19.712Z,12
2018-11-02T23:21:22.206Z,14
2018-11-02T23:26:24.623Z,14
2018-11-02T23:31:27.133Z,13
2018-11-02T23:36:29.558Z,13
2018-11-02T23:41:32.006Z,15
2018-11-02T23:46:34.463Z,16
2018-11-02T23:51:36.924Z,15
2018-11-02T23:56:39.407Z,13
